Time;durP1;ratioP1;P1;durP2;ratioP2;P2;SDS_P1;SDS_P2;PMS_P1;PMS_P2;Temp;Humidity;BMP_temperature;BMP_pressure;BME280_temperature;BME280_humidity;BME280_pressure;Samples;Min_cycle;Max_cycle;Signal;HPM_P1;HPM_P2
2022/11/04 00:00:52;;;;;;;2.80;2.60;;;11.20;99.90;;;;;;5051099;28;20224;-87
2022/11/04 00:03:18;;;;;;;2.87;2.63;;;11.20;99.90;;;;;;5044011;28;20196;-87
2022/11/04 00:05:44;;;;;;;3.83;2.80;;;11.30;99.90;;;;;;5040755;28;20209;-87
2022/11/04 00:08:24;;;;;;;2.97;2.77;;;11.20;99.90;;;;;;5041498;28;20196;-87
2022/11/04 00:13:39;;;;;;;3.10;2.60;;;11.20;99.90;;;;;;5005045;28;1172060;-87
2022/11/04 00:18:49;;;;;;;3.33;2.93;;;11.20;99.90;;;;;;5045791;28;20195;-87
2022/11/04 00:29:27;;;;;;;2.87;2.57;;;11.10;99.90;;;;;;5047970;28;20196;-87
2022/11/04 00:34:37;;;;;;;2.33;2.13;;;11.00;99.90;;;;;;5045877;28;20269;-87
2022/11/04 00:37:03;;;;;;;4.33;2.30;;;11.10;99.90;;;;;;5047329;28;20190;-87
2022/11/04 00:39:29;;;;;;;2.50;2.30;;;11.10;99.90;;;;;;5040527;28;20177;-86
2022/11/04 00:41:55;;;;;;;2.30;2.10;;;11.10;99.90;;;;;;5049296;28;20200;-87
2022/11/04 00:44:20;;;;;;;3.23;2.50;;;11.10;99.90;;;;;;5052722;28;20259;-86
2022/11/04 00:46:46;;;;;;;2.83;2.23;;;11.10;99.90;;;;;;5044477;28;20212;-87
2022/11/04 00:49:12;;;;;;;2.20;2.00;;;11.00;99.90;;;;;;5055922;28;20186;-87
2022/11/04 00:51:38;;;;;;;2.53;1.90;;;11.00;99.90;;;;;;5045777;28;20185;-86
2022/11/04 00:54:03;;;;;;;2.30;2.10;;;11.00;99.90;;;;;;5047971;28;20745;-86
2022/11/04 00:56:29;;;;;;;2.30;2.00;;;11.00;99.90;;;;;;5045570;28;20271;-87
2022/11/04 00:58:55;;;;;;;2.73;2.20;;;11.10;99.90;;;;;;5042681;28;20185;-86
2022/11/04 01:01:20;;;;;;;2.13;1.97;;;11.00;99.90;;;;;;5040288;28;20192;-87
2022/11/04 01:03:48;;;;;;;2.03;1.93;;;11.00;99.90;;;;;;5053629;28;20212;-87
2022/11/04 01:06:14;;;;;;;2.07;1.97;;;11.10;99.90;;;;;;5047901;28;20706;-87
2022/11/04 01:08:40;;;;;;;4.27;2.00;;;11.10;99.90;;;;;;5035894;28;20217;-87
2022/11/04 01:11:07;;;;;;;2.37;2.17;;;11.00;99.90;;;;;;5056976;28;20668;-87
2022/11/04 01:13:34;;;;;;;2.33;2.13;;;11.10;99.90;;;;;;5061774;28;20184;-87
2022/11/04 01:16:00;;;;;;;3.57;2.03;;;11.10;99.90;;;;;;5060427;28;20258;-87
2022/11/04 01:18:26;;;;;;;2.77;1.80;;;11.10;99.90;;;;;;5027155;28;20193;-87
2022/11/04 01:20:52;;;;;;;3.30;2.33;;;11.00;99.90;;;;;;5039976;28;20194;-87
2022/11/04 01:23:18;;;;;;;2.20;2.00;;;11.00;99.90;;;;;;5046491;28;20201;-87
2022/11/04 01:25:44;;;;;;;3.50;2.13;;;11.00;99.90;;;;;;5039370;28;20215;-87
2022/11/04 01:28:09;;;;;;;2.37;2.17;;;11.00;99.90;;;;;;5041088;28;20189;-87
2022/11/04 01:30:37;;;;;;;2.40;2.20;;;10.90;99.90;;;;;;5039535;28;20193;-87
2022/11/04 01:33:03;;;;;;;4.93;2.00;;;10.90;99.90;;;;;;5038541;28;20250;-88
2022/11/04 01:35:30;;;;;;;2.90;2.10;;;10.90;99.90;;;;;;5042188;28;20209;-88
2022/11/04 01:37:57;;;;;;;2.10;2.00;;;10.90;99.90;;;;;;5047597;28;20205;-88
2022/11/04 01:40:23;;;;;;;2.43;2.20;;;10.80;99.90;;;;;;5059365;28;20196;-87
2022/11/04 01:42:49;;;;;;;2.00;1.90;;;10.80;99.90;;;;;;5052523;28;20559;-87
2022/11/04 01:45:18;;;;;;;2.10;1.90;;;10.70;99.90;;;;;;5050102;28;20211;-87
2022/11/04 01:48:04;;;;;;;1.90;1.80;;;10.80;99.90;;;;;;5044766;28;20177;-87
2022/11/04 01:50:32;;;;;;;2.87;2.20;;;10.80;99.90;;;;;;5052402;28;20184;-87
2022/11/04 01:53:32;;;;;;;2.10;1.90;;;10.70;99.90;;;;;;5048486;28;20248;-87
2022/11/04 01:56:01;;;;;;;1.87;1.70;;;10.70;99.90;;;;;;5002281;28;20216;-87
2022/11/04 01:58:34;;;;;;;3.07;2.00;;;10.80;99.90;;;;;;5045668;28;20198;-86
2022/11/04 02:01:01;;;;;;;2.20;2.00;;;10.70;99.90;;;;;;5041479;28;20185;-87
2022/11/04 02:03:50;;;;;;;3.03;2.07;;;10.70;99.90;;;;;;5042146;28;20196;-87
2022/11/04 02:06:18;;;;;;;2.00;1.90;;;10.80;99.90;;;;;;5059009;28;20267;-86
2022/11/04 02:08:45;;;;;;;2.63;1.80;;;10.70;99.90;;;;;;5037579;28;20279;-87
2022/11/04 02:12:48;;;;;;;2.93;2.23;;;10.70;99.90;;;;;;5042953;28;20178;-87
2022/11/04 02:13:57;;;;;;;2.50;1.93;;;10.70;99.90;;;;;;5057461;28;20254;-87
2022/11/04 02:16:40;;;;;;;2.53;2.03;;;10.70;99.90;;;;;;5059077;28;20185;-87
2022/11/04 02:19:39;;;;;;;2.20;2.07;;;10.60;99.90;;;;;;5038675;28;20183;-88
2022/11/04 02:22:07;;;;;;;2.33;1.83;;;10.70;99.90;;;;;;5046685;28;20184;-88
2022/11/04 02:24:50;;;;;;;2.23;2.03;;;10.70;99.90;;;;;;5046693;28;20220;-87
2022/11/04 02:27:36;;;;;;;1.70;1.60;;;10.60;99.90;;;;;;5052551;28;20178;-87
2022/11/04 02:30:15;;;;;;;2.17;1.80;;;10.60;99.90;;;;;;5024737;28;20193;-88
2022/11/04 02:32:43;;;;;;;2.20;2.00;;;10.70;99.90;;;;;;5042720;28;20188;-87
2022/11/04 02:35:34;;;;;;;2.43;2.10;;;10.50;99.90;;;;;;5044413;28;20558;-87
2022/11/04 02:38:26;;;;;;;2.20;2.00;;;10.50;99.90;;;;;;5045532;28;20194;-88
2022/11/04 02:41:11;;;;;;;2.00;1.80;;;10.50;99.90;;;;;;5081661;22;20256;-89
2022/11/04 02:43:58;;;;;;;3.23;2.23;;;10.60;99.90;;;;;;5053531;28;20217;-89
2022/11/04 02:46:32;;;;;;;2.10;1.80;;;10.60;99.90;;;;;;5056192;28;20185;-90
2022/11/04 02:49:09;;;;;;;2.60;2.27;;;10.50;99.90;;;;;;5046824;28;20835;-89
2022/11/04 02:51:51;;;;;;;1.90;1.80;;;10.60;99.90;;;;;;5051521;28;20186;-89
2022/11/04 02:54:43;;;;;;;2.30;2.00;;;10.60;99.90;;;;;;5052335;28;20237;-89
2022/11/04 02:57:19;;;;;;;3.00;2.23;;;10.70;99.90;;;;;;5045783;28;20206;-89
2022/11/04 02:59:56;;;;;;;1.90;1.80;;;10.70;99.90;;;;;;5046343;28;20943;-90
2022/11/04 03:02:34;;;;;;;2.60;2.20;;;10.80;99.90;;;;;;5044803;28;20227;-89
2022/11/04 03:05:02;;;;;;;3.43;2.13;;;10.70;99.90;;;;;;5051823;28;20223;-89
2022/11/04 03:07:33;;;;;;;2.57;2.00;;;10.70;99.90;;;;;;5042821;28;20249;-89
2022/11/04 03:10:07;;;;;;;2.20;2.00;;;10.80;99.90;;;;;;5042483;28;20215;-90
2022/11/04 03:12:39;;;;;;;2.43;2.20;;;10.70;99.90;;;;;;5051745;28;20199;-89
2022/11/04 03:15:11;;;;;;;2.10;1.90;;;10.60;99.90;;;;;;5053275;28;20216;-89
2022/11/04 03:18:14;;;;;;;2.20;2.00;;;10.60;99.90;;;;;;5027594;28;20291;-89
2022/11/04 03:20:40;;;;;;;3.37;1.83;;;10.60;99.90;;;;;;5041752;28;20199;-89
2022/11/04 03:23:08;;;;;;;1.90;1.80;;;10.60;99.90;;;;;;5037789;28;20196;-90
2022/11/04 03:25:45;;;;;;;2.17;1.80;;;10.60;99.90;;;;;;5049852;28;20235;-89
2022/11/04 03:28:31;;;;;;;2.10;1.80;;;10.60;99.90;;;;;;5049828;28;20192;-90
2022/11/04 03:31:02;;;;;;;1.80;1.70;;;10.50;99.90;;;;;;5056655;28;20187;-89
2022/11/04 03:33:35;;;;;;;1.80;1.70;;;10.60;99.90;;;;;;5054949;28;20188;-89
2022/11/04 03:36:03;;;;;;;4.30;2.00;;;10.70;99.90;;;;;;5048802;28;20264;-89
2022/11/04 03:38:29;;;;;;;2.03;1.90;;;10.70;99.90;;;;;;5049702;28;20253;-88
2022/11/04 03:40:56;;;;;;;1.90;1.80;;;10.50;99.90;;;;;;5040493;28;20253;-90
2022/11/04 03:43:29;;;;;;;1.77;1.67;;;10.50;99.90;;;;;;5054067;28;20191;-90
2022/11/04 03:45:55;;;;;;;2.07;1.87;;;10.40;99.90;;;;;;5053359;28;20273;-89
2022/11/04 03:48:22;;;;;;;2.10;2.00;;;10.40;99.90;;;;;;5053264;28;20237;-90
2022/11/04 03:50:48;;;;;;;1.80;1.70;;;10.40;99.90;;;;;;5058139;28;20188;-89
2022/11/04 03:53:27;;;;;;;4.87;2.07;;;10.40;99.90;;;;;;5051330;28;20192;-87
2022/11/04 03:56:01;;;;;;;2.23;2.07;;;10.50;99.90;;;;;;5048982;28;20260;-89
2022/11/04 03:58:45;;;;;;;2.60;2.10;;;10.50;99.90;;;;;;5054033;28;20179;-89
2022/11/04 04:01:29;;;;;;;2.30;2.20;;;10.40;99.90;;;;;;5052520;28;20184;-89
2022/11/04 04:04:07;;;;;;;2.07;1.90;;;10.40;99.90;;;;;;5048436;28;20222;-88
2022/11/04 04:06:35;;;;;;;1.90;1.80;;;10.50;99.90;;;;;;5029656;28;20273;-89
2022/11/04 04:09:25;;;;;;;2.30;2.20;;;10.60;99.90;;;;;;5050455;28;20274;-89
2022/11/04 04:11:57;;;;;;;2.63;2.43;;;10.60;99.90;;;;;;5051240;28;20188;-89
2022/11/04 04:14:40;;;;;;;3.50;2.20;;;10.60;99.90;;;;;;5044604;28;20341;-89
2022/11/04 04:17:18;;;;;;;2.57;2.20;;;10.60;99.90;;;;;;5051027;28;20196;-89
2022/11/04 04:19:50;;;;;;;2.70;1.93;;;10.60;99.90;;;;;;5050277;28;20257;-89
2022/11/04 04:22:28;;;;;;;2.33;2.13;;;10.50;99.90;;;;;;5061782;28;20188;-90
2022/11/04 04:27:43;;;;;;;2.20;2.00;;;10.50;99.90;;;;;;5052562;28;20543;-88
2022/11/04 04:30:14;;;;;;;2.00;1.90;;;10.60;99.90;;;;;;5048173;28;20202;-89
2022/11/04 04:32:47;;;;;;;1.70;1.60;;;10.60;99.90;;;;;;5029693;28;20188;-89
2022/11/04 04:46:30;;;;;;;4.80;2.20;;;10.90;99.90;;;;;;5050146;28;20678;-89
2022/11/04 04:49:03;;;;;;;2.30;2.10;;;10.90;99.90;;;;;;5049629;28;20187;-89
2022/11/04 04:51:30;;;;;;;4.17;2.33;;;11.00;99.90;;;;;;5050453;28;20265;-89
2022/11/04 04:53:55;;;;;;;2.07;1.97;;;11.00;99.90;;;;;;5050338;28;20687;-89
2022/11/04 04:56:21;;;;;;;2.60;2.30;;;10.90;99.90;;;;;;5046727;28;20262;-89
2022/11/04 04:58:47;;;;;;;2.90;1.80;;;10.90;99.90;;;;;;5052151;28;20203;-89
2022/11/04 05:01:12;;;;;;;2.93;2.10;;;10.90;99.90;;;;;;5050492;28;20188;-89
2022/11/04 05:03:38;;;;;;;2.17;1.97;;;10.90;99.90;;;;;;5060610;28;20215;-89
2022/11/04 05:06:04;;;;;;;4.53;2.50;;;10.80;99.90;;;;;;5049839;28;20289;-90
2022/11/04 05:08:29;;;;;;;2.43;2.20;;;10.60;99.90;;;;;;5051936;28;20290;-89
2022/11/04 05:10:55;;;;;;;2.33;2.13;;;10.50;99.90;;;;;;5050643;28;20190;-88
2022/11/04 05:13:28;;;;;;;3.50;2.20;;;10.50;99.90;;;;;;5034996;28;20208;-91
2022/11/04 05:15:55;;;;;;;2.50;2.30;;;10.50;99.90;;;;;;5045819;28;20191;-87
2022/11/04 05:18:20;;;;;;;2.57;2.30;;;10.60;99.90;;;;;;5049923;28;20191;-89
2022/11/04 05:20:46;;;;;;;2.43;2.30;;;10.60;99.90;;;;;;5050698;28;20323;-89
2022/11/04 05:23:13;;;;;;;2.30;2.10;;;10.70;99.90;;;;;;5054303;28;20188;-89
2022/11/04 05:25:40;;;;;;;2.37;1.80;;;10.70;99.90;;;;;;5056927;28;20277;-90
2022/11/04 05:28:06;;;;;;;3.90;2.27;;;10.70;99.90;;;;;;5041512;28;20195;-89
2022/11/04 05:30:32;;;;;;;6.67;4.80;;;10.60;99.90;;;;;;5062764;28;20176;-90
2022/11/04 05:32:58;;;;;;;6.00;5.40;;;10.60;99.90;;;;;;5060120;28;20206;-89
2022/11/04 05:35:24;;;;;;;4.73;4.30;;;10.70;99.90;;;;;;5057344;28;20618;-88
2022/11/04 05:37:49;;;;;;;4.03;3.73;;;10.80;99.90;;;;;;5057508;28;20184;-89
2022/11/04 05:40:15;;;;;;;5.73;5.23;;;10.70;99.90;;;;;;5059729;28;20231;-89
2022/11/04 05:42:41;;;;;;;5.20;4.70;;;10.80;99.90;;;;;;5061208;28;20196;-89
2022/11/04 05:45:07;;;;;;;4.60;2.80;;;10.80;99.90;;;;;;5069424;28;20219;-89
2022/11/04 05:47:33;;;;;;;2.93;2.63;;;10.80;99.90;;;;;;5057147;28;20206;-89
2022/11/04 05:49:59;;;;;;;2.80;2.60;;;10.70;99.90;;;;;;5056152;28;20195;-89
2022/11/04 05:52:24;;;;;;;4.73;3.23;;;10.70;99.90;;;;;;5055535;28;20172;-90
2022/11/04 05:54:50;;;;;;;4.87;3.97;;;10.50;99.90;;;;;;5066045;28;20223;-90
2022/11/04 05:57:16;;;;;;;3.57;3.27;;;10.40;99.90;;;;;;5046346;28;20248;-89
2022/11/04 05:59:41;;;;;;;4.27;2.47;;;10.30;99.90;;;;;;5071041;28;20174;-90
2022/11/04 06:02:07;;;;;;;2.60;2.40;;;10.10;99.90;;;;;;5050766;28;20195;-90
2022/11/04 06:04:34;;;;;;;2.70;2.50;;;10.10;99.90;;;;;;5058027;28;20214;-89
2022/11/04 06:06:59;;;;;;;3.53;2.97;;;10.10;99.90;;;;;;5054583;28;20195;-90
2022/11/04 06:09:37;;;;;;;3.83;2.20;;;10.20;99.90;;;;;;5047034;28;20544;-89
2022/11/04 06:12:15;;;;;;;2.47;2.20;;;10.20;99.90;;;;;;5056001;28;20276;-90
2022/11/04 06:14:41;;;;;;;2.83;2.57;;;10.30;99.90;;;;;;5050029;28;20213;-89
2022/11/04 06:17:15;;;;;;;3.50;3.20;;;10.40;99.90;;;;;;5026860;28;20201;-89
2022/11/04 06:19:41;;;;;;;3.93;2.97;;;10.40;99.90;;;;;;5048426;28;20191;-89
2022/11/04 06:22:09;;;;;;;2.97;2.67;;;10.40;99.90;;;;;;5060505;28;20196;-89
2022/11/04 06:24:35;;;;;;;3.67;3.10;;;10.40;99.90;;;;;;5053044;28;20299;-89
2022/11/04 06:27:01;;;;;;;3.30;3.00;;;10.40;99.90;;;;;;5051032;28;20195;-89
2022/11/04 06:29:26;;;;;;;2.87;2.67;;;10.50;99.90;;;;;;5052192;28;20210;-89
2022/11/04 06:31:52;;;;;;;3.93;2.97;;;10.60;99.90;;;;;;5049139;28;20198;-88
2022/11/04 06:34:18;;;;;;;3.13;2.83;;;10.60;99.90;;;;;;5053753;28;20843;-88
2022/11/04 06:36:43;;;;;;;4.13;3.73;;;10.50;99.90;;;;;;5052522;28;20213;-89
2022/11/04 06:39:11;;;;;;;4.23;3.83;;;10.70;99.90;;;;;;5051024;28;20218;-89
2022/11/04 06:41:36;;;;;;;6.43;4.33;;;10.60;99.90;;;;;;5053346;28;20583;-89
2022/11/04 06:44:02;;;;;;;4.47;3.30;;;10.70;99.90;;;;;;5057435;28;20211;-89
2022/11/04 06:46:38;;;;;;;3.80;3.33;;;10.70;99.90;;;;;;5061410;28;20193;-90
2022/11/04 06:49:06;;;;;;;3.90;3.50;;;10.60;99.90;;;;;;5052190;28;20188;-89
2022/11/04 06:51:32;;;;;;;5.03;3.73;;;10.60;99.90;;;;;;5054606;28;20187;-89
2022/11/04 06:53:58;;;;;;;3.50;3.20;;;10.60;99.90;;;;;;5050912;28;20215;-90
2022/11/04 06:56:24;;;;;;;3.60;3.30;;;10.60;99.90;;;;;;5057089;28;20195;-90
2022/11/04 06:58:51;;;;;;;3.97;3.53;;;10.70;99.90;;;;;;5059620;28;20184;-89
2022/11/04 07:01:18;;;;;;;3.80;3.40;;;10.70;99.90;;;;;;5052788;28;20279;-90
2022/11/04 07:03:47;;;;;;;3.40;3.10;;;10.70;99.90;;;;;;5045759;28;20230;-90
2022/11/04 07:06:13;;;;;;;3.67;3.37;;;10.70;99.90;;;;;;5040266;28;20203;-90
2022/11/04 07:08:39;;;;;;;3.50;3.20;;;10.70;99.90;;;;;;5051341;28;20189;-90
2022/11/04 07:11:05;;;;;;;6.47;2.90;;;10.80;99.90;;;;;;5034916;28;20209;-89
2022/11/04 07:13:31;;;;;;;3.10;2.80;;;10.80;99.90;;;;;;5044883;28;20181;-89
2022/11/04 07:15:57;;;;;;;3.20;2.90;;;10.90;99.90;;;;;;5048277;28;20187;-90
2022/11/04 07:18:23;;;;;;;3.20;2.90;;;10.90;99.90;;;;;;5055986;28;20192;-90
2022/11/04 07:20:48;;;;;;;4.73;2.70;;;10.90;99.90;;;;;;5058731;28;20249;-90
2022/11/04 07:23:14;;;;;;;4.37;3.00;;;10.90;99.90;;;;;;5036005;28;20222;-89
2022/11/04 07:25:42;;;;;;;6.87;3.23;;;11.00;99.90;;;;;;5060374;28;20241;-90
2022/11/04 07:28:07;;;;;;;3.97;2.87;;;11.10;99.90;;;;;;5049970;28;20200;-90
2022/11/04 07:30:33;;;;;;;5.70;2.90;;;11.20;99.90;;;;;;5044492;28;20646;-90
2022/11/04 07:32:59;;;;;;;4.90;3.30;;;11.20;99.90;;;;;;5062267;28;20206;-89
2022/11/04 07:35:25;;;;;;;3.67;3.03;;;11.20;99.90;;;;;;5062348;28;20601;-90
2022/11/04 07:37:50;;;;;;;3.27;2.97;;;11.20;99.90;;;;;;5056352;28;20266;-90
2022/11/04 07:40:16;;;;;;;3.80;3.40;;;11.30;99.90;;;;;;5056102;28;20265;-89
2022/11/04 07:42:43;;;;;;;3.03;2.83;;;11.30;99.90;;;;;;5065211;28;20627;-90
2022/11/04 07:45:09;;;;;;;5.00;3.17;;;11.40;99.90;;;;;;5048558;28;20224;-89
2022/11/04 07:47:35;;;;;;;3.17;2.90;;;11.40;99.90;;;;;;5050371;28;20783;-90
2022/11/04 07:50:00;;;;;;;6.37;3.17;;;11.40;99.90;;;;;;5059518;28;20193;-90
2022/11/04 07:52:26;;;;;;;5.47;3.20;;;11.30;99.90;;;;;;5056290;28;20212;-89
2022/11/04 07:54:52;;;;;;;3.37;2.87;;;11.40;99.90;;;;;;5037652;28;20242;-90
2022/11/04 07:57:19;;;;;;;2.90;2.70;;;11.10;99.90;;;;;;5050934;28;20199;-90
2022/11/04 07:59:44;;;;;;;3.07;2.77;;;11.00;99.90;;;;;;5055183;28;20181;-90
2022/11/04 08:02:10;;;;;;;4.07;2.70;;;11.00;99.90;;;;;;5056132;28;20199;-89
2022/11/04 08:04:36;;;;;;;6.37;3.00;;;11.00;99.90;;;;;;5051636;28;20295;-90
2022/11/04 08:07:04;;;;;;;3.40;2.97;;;11.00;99.90;;;;;;5057680;28;20182;-90
2022/11/04 08:09:30;;;;;;;3.07;2.87;;;11.20;99.90;;;;;;5059123;28;20201;-88
2022/11/04 08:11:56;;;;;;;3.33;2.70;;;11.20;99.90;;;;;;5059784;28;20191;-88
2022/11/04 08:14:22;;;;;;;5.97;3.00;;;11.20;99.60;;;;;;5044710;28;20210;-88
2022/11/04 08:16:50;;;;;;;3.23;2.60;;;11.30;99.90;;;;;;5060316;28;20207;-88
2022/11/04 08:19:16;;;;;;;2.70;2.50;;;11.30;99.90;;;;;;5028389;28;20698;-88
2022/11/04 08:21:41;;;;;;;3.37;2.47;;;11.30;99.90;;;;;;5054415;28;20192;-89
2022/11/04 08:24:08;;;;;;;2.77;2.57;;;11.40;99.90;;;;;;5052830;28;20726;-89
2022/11/04 08:26:34;;;;;;;4.00;2.70;;;11.40;99.90;;;;;;5056006;28;20192;-88
2022/11/04 08:29:01;;;;;;;3.97;2.30;;;11.40;99.90;;;;;;5061922;28;20195;-89
2022/11/04 08:31:29;;;;;;;3.67;2.57;;;11.40;99.90;;;;;;5038520;28;20564;-89
2022/11/04 08:33:56;;;;;;;2.90;2.30;;;11.50;99.90;;;;;;5055979;28;20204;-89
2022/11/04 08:36:31;;;;;;;3.17;2.60;;;11.60;99.90;;;;;;5039072;28;20188;-88
2022/11/04 08:38:57;;;;;;;2.47;2.27;;;11.70;99.90;;;;;;5053801;28;20184;-88
2022/11/04 08:41:27;;;;;;;3.80;2.40;;;11.70;99.90;;;;;;5045067;28;20282;-89
2022/11/04 08:43:55;;;;;;;3.50;2.70;;;11.80;99.90;;;;;;5058053;28;20236;-89
2022/11/04 08:46:21;;;;;;;4.47;2.37;;;11.70;99.00;;;;;;5027652;28;20214;-89
2022/11/04 08:48:48;;;;;;;7.53;2.77;;;11.70;99.20;;;;;;5056466;28;20657;-89
2022/11/04 08:51:25;;;;;;;2.77;2.27;;;11.70;99.50;;;;;;5035833;28;20651;-89
2022/11/04 08:53:51;;;;;;;2.77;2.47;;;11.60;99.90;;;;;;5041809;28;20227;-89
2022/11/04 08:56:21;;;;;;;2.57;2.37;;;11.70;99.90;;;;;;5050126;28;20200;-89
2022/11/04 08:58:48;;;;;;;5.40;2.40;;;11.70;99.90;;;;;;5056733;28;20214;-88
2022/11/04 09:01:15;;;;;;;2.60;2.30;;;11.90;99.90;;;;;;5051361;28;20242;-89
2022/11/04 09:03:41;;;;;;;4.10;2.50;;;12.00;97.40;;;;;;5047096;28;20266;-89
2022/11/04 09:06:12;;;;;;;2.53;2.27;;;11.90;99.30;;;;;;5053995;28;20188;-89
2022/11/04 09:08:38;;;;;;;6.20;2.40;;;12.00;99.10;;;;;;5046924;28;20192;-88
2022/11/04 09:11:11;;;;;;;3.97;2.57;;;12.20;96.10;;;;;;5059477;28;20632;-89
2022/11/04 09:13:37;;;;;;;3.67;2.23;;;12.20;98.30;;;;;;5040562;28;20223;-90
2022/11/04 09:16:04;;;;;;;4.20;2.53;;;12.10;96.50;;;;;;5058133;28;20506;-89
2022/11/04 09:18:30;;;;;;;4.80;2.63;;;12.10;98.20;;;;;;5059390;28;20191;-89
2022/11/04 09:20:59;;;;;;;4.30;2.20;;;12.10;97.60;;;;;;5057204;28;20272;-89
2022/11/04 09:23:25;;;;;;;4.43;2.10;;;12.30;97.80;;;;;;5055619;28;20200;-89
2022/11/04 09:25:51;;;;;;;3.37;2.20;;;12.20;95.50;;;;;;5039617;28;20224;-88
2022/11/04 09:28:17;;;;;;;3.50;2.10;;;12.30;94.70;;;;;;5053598;28;20246;-89
2022/11/04 09:30:43;;;;;;;4.00;2.30;;;12.50;96.00;;;;;;5053797;28;20192;-90
2022/11/04 09:33:10;;;;;;;4.13;2.43;;;12.90;92.80;;;;;;5044753;28;20189;-89
2022/11/04 09:35:35;;;;;;;4.97;2.27;;;13.00;91.80;;;;;;5031981;28;20211;-89
2022/11/04 09:38:01;;;;;;;3.17;2.03;;;13.10;88.70;;;;;;5048748;28;20594;-89
2022/11/04 09:40:28;;;;;;;3.00;1.97;;;13.10;87.60;;;;;;5062060;28;20192;-89
2022/11/04 09:43:24;;;;;;;3.33;2.23;;;12.90;86.60;;;;;;5042518;28;20253;-89
2022/11/04 09:45:50;;;;;;;4.83;3.43;;;12.80;89.20;;;;;;5043596;28;20218;-89
2022/11/04 09:48:27;;;;;;;3.50;2.63;;;12.50;92.60;;;;;;5064022;28;20245;-90
2022/11/04 09:50:56;;;;;;;3.60;2.43;;;12.50;91.80;;;;;;5033741;28;20185;-89
2022/11/04 09:53:42;;;;;;;5.20;1.87;;;12.60;92.00;;;;;;5035882;28;20215;-89
2022/11/04 09:56:44;;;;;;;3.73;2.40;;;12.70;92.80;;;;;;5033534;28;20208;-89
2022/11/04 09:59:16;;;;;;;4.40;2.40;;;12.60;89.60;;;;;;4994407;28;20281;-90
2022/11/04 10:01:48;;;;;;;2.43;2.07;;;12.60;91.70;;;;;;5043374;28;20201;-89
2022/11/04 10:04:32;;;;;;;4.20;2.07;;;12.50;92.20;;;;;;5047501;28;20211;-89
2022/11/04 10:07:16;;;;;;;2.83;1.87;;;12.40;92.90;;;;;;5050251;28;20302;-89
2022/11/04 10:09:59;;;;;;;3.37;2.20;;;12.30;93.60;;;;;;5042137;28;20189;-91
2022/11/04 10:12:34;;;;;;;3.20;2.30;;;12.40;90.60;;;;;;5042355;28;20339;-91
2022/11/04 10:15:00;;;;;;;3.43;2.30;;;12.40;91.30;;;;;;5052537;28;20230;-90
2022/11/04 10:17:37;;;;;;;2.20;2.10;;;12.30;90.10;;;;;;5037084;28;20184;-89
2022/11/04 10:20:26;;;;;;;4.50;2.40;;;12.40;89.00;;;;;;5040128;28;20186;-89
2022/11/04 10:23:01;;;;;;;5.27;2.40;;;12.60;90.00;;;;;;5055044;28;20191;-89
2022/11/04 10:25:48;;;;;;;3.67;2.40;;;12.50;89.80;;;;;;5055114;28;20210;-90
2022/11/04 10:28:19;;;;;;;5.23;2.30;;;12.50;90.60;;;;;;5052869;28;20188;-90
2022/11/04 10:30:50;;;;;;;4.50;2.20;;;12.60;89.80;;;;;;5035388;28;20189;-90
2022/11/04 10:33:42;;;;;;;2.60;2.30;;;12.70;92.50;;;;;;5049774;28;20599;-87
2022/11/04 10:36:14;;;;;;;2.97;2.30;;;12.80;91.20;;;;;;5047471;28;20200;-90
2022/11/04 10:38:55;;;;;;;3.30;2.43;;;13.10;86.40;;;;;;5043102;28;20201;-90
2022/11/04 10:41:26;;;;;;;6.77;2.50;;;13.10;87.70;;;;;;5039832;28;20208;-90
2022/11/04 10:44:03;;;;;;;5.93;2.37;;;12.80;91.00;;;;;;5039497;28;20216;-89
2022/11/04 10:46:37;;;;;;;4.33;2.53;;;12.70;94.00;;;;;;5066164;28;20217;-88
2022/11/04 10:49:25;;;;;;;5.13;2.30;;;12.80;94.90;;;;;;5060236;28;20184;-89
2022/11/04 10:51:51;;;;;;;5.27;2.50;;;12.90;95.40;;;;;;5064187;28;20185;-88
2022/11/04 10:54:18;;;;;;;3.47;2.40;;;12.90;97.30;;;;;;5056251;28;20694;-88
2022/11/04 10:56:52;;;;;;;4.90;2.50;;;12.90;96.70;;;;;;5052829;28;20179;-88
2022/11/04 10:59:45;;;;;;;4.97;3.60;;;12.90;98.10;;;;;;5063116;28;20236;-89
2022/11/04 11:02:11;;;;;;;2.73;2.00;;;12.90;99.90;;;;;;5054060;28;20183;-88
2022/11/04 11:04:39;;;;;;;4.30;2.40;;;12.90;99.90;;;;;;5059875;28;20225;-88
2022/11/04 11:07:08;;;;;;;4.93;2.60;;;12.90;99.90;;;;;;5055397;28;20671;-88
2022/11/04 11:09:41;;;;;;;3.60;2.30;;;13.00;99.90;;;;;;5052014;28;20213;-88
2022/11/04 11:12:13;;;;;;;2.33;1.93;;;13.10;99.80;;;;;;5057638;28;20177;-88
2022/11/04 11:14:40;;;;;;;3.80;2.37;;;13.20;99.80;;;;;;5065003;28;20231;-88
2022/11/04 11:17:18;;;;;;;3.33;2.30;;;13.30;98.00;;;;;;5064328;28;20213;-87
2022/11/04 11:20:06;;;;;;;5.17;2.20;;;13.50;99.00;;;;;;5053910;28;20184;-88
2022/11/04 11:22:37;;;;;;;2.43;2.20;;;13.90;96.80;;;;;;5056897;28;20273;-87
2022/11/04 11:25:45;;;;;;;3.37;2.10;;;14.10;95.60;;;;;;5055786;28;20199;-88
2022/11/04 11:28:22;;;;;;;4.47;2.17;;;14.10;93.70;;;;;;4972308;28;20483;-88
2022/11/04 11:30:48;;;;;;;4.13;2.30;;;14.20;93.60;;;;;;4974968;28;20195;-88
2022/11/04 11:33:29;;;;;;;2.50;2.30;;;14.20;94.50;;;;;;5025659;28;20200;-88
2022/11/04 11:36:22;;;;;;;3.90;2.27;;;14.40;92.80;;;;;;5052350;28;20202;-87
2022/11/04 11:39:09;;;;;;;7.07;5.53;;;14.50;92.50;;;;;;5056824;28;20183;-88
2022/11/04 11:41:50;;;;;;;13.10;9.83;;;14.70;91.20;;;;;;5053595;28;20214;-88
2022/11/04 11:44:45;;;;;;;4.13;2.83;;;15.10;89.10;;;;;;5038918;28;20220;-88
2022/11/04 11:47:40;;;;;;;3.57;2.37;;;15.40;89.40;;;;;;5053629;28;20702;-89
2022/11/04 11:50:12;;;;;;;3.93;2.20;;;15.60;84.40;;;;;;5033801;28;20198;-89
2022/11/04 11:52:39;;;;;;;5.17;2.70;;;15.70;84.80;;;;;;5047460;28;20193;-89
2022/11/04 11:55:17;;;;;;;4.03;2.73;;;15.60;82.50;;;;;;5044885;28;20541;-89
2022/11/04 11:57:48;;;;;;;4.00;2.60;;;15.80;83.20;;;;;;5062046;28;20749;-89
2022/11/04 12:00:17;;;;;;;4.27;2.40;;;15.80;82.70;;;;;;5053735;28;20187;-90
2022/11/04 12:02:55;;;;;;;3.03;2.40;;;15.80;82.80;;;;;;5048229;28;20197;-89
2022/11/04 12:05:34;;;;;;;3.13;2.30;;;15.90;84.20;;;;;;5050176;28;20201;-89
2022/11/04 12:08:19;;;;;;;2.40;2.20;;;16.40;81.50;;;;;;5062268;28;20206;-89
2022/11/04 12:10:57;;;;;;;4.32;2.20;;;16.80;75.90;;;;;;5052874;28;20191;-90
2022/11/04 12:13:30;;;;;;;5.93;2.33;;;17.40;74.10;;;;;;5059788;28;20190;-89
2022/11/04 12:16:35;;;;;;;3.95;2.58;;;17.60;69.50;;;;;;5049333;28;20168;-90
2022/11/04 12:19:12;;;;;;;3.25;2.40;;;17.60;72.20;;;;;;4981616;28;20288;-91
2022/11/04 12:22:08;;;;;;;3.15;2.60;;;17.40;69.40;;;;;;5067849;28;20207;-89
2022/11/04 12:24:43;;;;;;;5.57;2.25;;;17.10;71.40;;;;;;5065474;28;20226;-90
2022/11/04 12:27:18;;;;;;;6.57;2.37;;;16.80;67.50;;;;;;5044042;28;20224;-90
2022/11/04 12:30:16;;;;;;;3.67;2.13;;;16.20;71.00;;;;;;5046860;28;20250;-90
2022/11/04 12:33:09;;;;;;;4.43;2.55;;;16.20;72.80;;;;;;5046029;28;20229;-89
2022/11/04 12:36:03;;;;;;;4.73;2.30;;;16.20;70.50;;;;;;5047366;28;20213;-90
2022/11/04 12:38:47;;;;;;;3.27;2.33;;;16.10;74.10;;;;;;5059876;28;20261;-90
2022/11/04 12:41:28;;;;;;;2.93;2.33;;;15.90;75.10;;;;;;5059080;28;20201;-89
2022/11/04 12:44:24;;;;;;;3.43;2.50;;;15.60;72.10;;;;;;5041145;28;20245;-90
2022/11/04 12:46:55;;;;;;;3.60;2.20;;;15.40;73.00;;;;;;5053282;28;20181;-90
2022/11/04 12:49:27;;;;;;;3.60;2.20;;;15.90;72.00;;;;;;5046124;28;20248;-90
2022/11/04 12:52:10;;;;;;;2.93;2.40;;;16.30;67.40;;;;;;5063321;28;20205;-90
2022/11/04 12:54:55;;;;;;;2.50;2.30;;;16.80;65.00;;;;;;5062232;28;20277;-90
2022/11/04 12:57:57;;;;;;;3.00;2.10;;;17.20;62.90;;;;;;5054704;28;20599;-90
2022/11/04 13:00:25;;;;;;;2.33;2.13;;;17.30;61.50;;;;;;5043569;28;20196;-90
2022/11/04 13:02:56;;;;;;;2.63;2.30;;;17.20;61.70;;;;;;5063964;28;20213;-90
2022/11/04 13:05:52;;;;;;;2.43;2.10;;;16.80;66.10;;;;;;5034507;28;20247;-90
2022/11/04 13:08:30;;;;;;;3.93;2.10;;;16.80;63.30;;;;;;5045665;28;20187;-90
2022/11/04 13:11:21;;;;;;;3.77;2.30;;;17.40;60.20;;;;;;5046530;28;20199;-90
2022/11/04 13:14:08;;;;;;;2.40;2.20;;;17.60;60.00;;;;;;5037420;28;20223;-90
2022/11/04 13:16:43;;;;;;;4.63;3.37;;;16.90;61.90;;;;;;5050971;28;20188;-90
2022/11/04 13:19:23;;;;;;;2.20;1.90;;;16.40;61.00;;;;;;5031855;28;20183;-89
2022/11/04 13:21:49;;;;;;;2.60;1.93;;;15.80;64.50;;;;;;5046149;28;20180;-90
2022/11/04 13:24:22;;;;;;;3.60;2.70;;;15.50;68.70;;;;;;5068484;28;20234;-90
2022/11/04 13:26:50;;;;;;;2.77;2.30;;;15.60;67.00;;;;;;5027855;28;20189;-89
2022/11/04 13:29:20;;;;;;;3.47;2.70;;;15.90;64.00;;;;;;5059729;28;20175;-89
2022/11/04 13:32:03;;;;;;;2.07;1.87;;;16.00;63.20;;;;;;5060512;28;20211;-89
2022/11/04 13:34:47;;;;;;;3.00;1.93;;;16.00;68.30;;;;;;5050312;28;20249;-89
2022/11/04 13:37:18;;;;;;;3.47;2.17;;;16.10;63.10;;;;;;5038834;28;20248;-90
2022/11/04 13:39:53;;;;;;;2.27;2.03;;;16.20;63.80;;;;;;5047480;28;20228;-90
2022/11/04 13:42:53;;;;;;;3.23;2.00;;;16.00;64.40;;;;;;5045188;28;20237;-90